sensor_id;sensor_type;location;lat;lon;timestamp;temperature;humidity
52787;DHT22;38661;53.152;5.846;2023-12-20T00:01:22;6.80;92.10
52787;DHT22;38661;53.152;5.846;2023-12-20T00:03:48;6.80;92.10
52787;DHT22;38661;53.152;5.846;2023-12-20T00:06:14;6.80;92.10
52787;DHT22;38661;53.152;5.846;2023-12-20T00:08:40;6.60;92.20
52787;DHT22;38661;53.152;5.846;2023-12-20T00:11:05;6.60;92.10
52787;DHT22;38661;53.152;5.846;2023-12-20T00:13:31;6.40;92.30
52787;DHT22;38661;53.152;5.846;2023-12-20T00:15:57;6.40;92.60
52787;DHT22;38661;53.152;5.846;2023-12-20T00:18:23;6.40;92.80
52787;DHT22;38661;53.152;5.846;2023-12-20T00:20:49;6.30;92.90
52787;DHT22;38661;53.152;5.846;2023-12-20T00:23:14;6.30;93.00
52787;DHT22;38661;53.152;5.846;2023-12-20T00:25:40;6.40;93.00
52787;DHT22;38661;53.152;5.846;2023-12-20T00:28:06;6.30;93.20
52787;DHT22;38661;53.152;5.846;2023-12-20T00:30:32;6.40;93.20
52787;DHT22;38661;53.152;5.846;2023-12-20T00:32:57;6.50;93.40
52787;DHT22;38661;53.152;5.846;2023-12-20T00:35:23;6.50;93.40
52787;DHT22;38661;53.152;5.846;2023-12-20T00:37:50;6.50;93.40
52787;DHT22;38661;53.152;5.846;2023-12-20T00:40:15;6.60;93.50
52787;DHT22;38661;53.152;5.846;2023-12-20T00:42:41;6.60;93.40
52787;DHT22;38661;53.152;5.846;2023-12-20T00:45:07;6.60;93.50
52787;DHT22;38661;53.152;5.846;2023-12-20T00:47:33;6.70;93.40
52787;DHT22;38661;53.152;5.846;2023-12-20T00:49:59;6.70;93.20
52787;DHT22;38661;53.152;5.846;2023-12-20T00:52:25;6.70;93.30
52787;DHT22;38661;53.152;5.846;2023-12-20T00:54:50;6.70;93.40
52787;DHT22;38661;53.152;5.846;2023-12-20T00:57:16;6.70;93.50
52787;DHT22;38661;53.152;5.846;2023-12-20T00:59:42;6.70;93.40
52787;DHT22;38661;53.152;5.846;2023-12-20T01:02:07;6.70;93.60
52787;DHT22;38661;53.152;5.846;2023-12-20T01:04:34;6.80;93.60
52787;DHT22;38661;53.152;5.846;2023-12-20T01:07:00;6.80;93.50
52787;DHT22;38661;53.152;5.846;2023-12-20T01:09:25;6.80;93.50
52787;DHT22;38661;53.152;5.846;2023-12-20T01:11:54;6.80;93.60
52787;DHT22;38661;53.152;5.846;2023-12-20T01:14:19;6.80;93.50
52787;DHT22;38661;53.152;5.846;2023-12-20T01:16:45;6.80;93.60
52787;DHT22;38661;53.152;5.846;2023-12-20T01:19:11;6.80;93.80
52787;DHT22;38661;53.152;5.846;2023-12-20T01:21:37;6.90;93.50
52787;DHT22;38661;53.152;5.846;2023-12-20T01:24:02;6.90;93.40
52787;DHT22;38661;53.152;5.846;2023-12-20T01:26:28;7.00;93.60
52787;DHT22;38661;53.152;5.846;2023-12-20T01:28:54;7.00;93.50
52787;DHT22;38661;53.152;5.846;2023-12-20T01:31:19;7.00;93.30
52787;DHT22;38661;53.152;5.846;2023-12-20T01:33:45;7.20;92.80
52787;DHT22;38661;53.152;5.846;2023-12-20T01:36:11;7.20;92.70
52787;DHT22;38661;53.152;5.846;2023-12-20T01:38:37;7.20;92.90
52787;DHT22;38661;53.152;5.846;2023-12-20T01:41:03;7.20;92.90
52787;DHT22;38661;53.152;5.846;2023-12-20T01:43:29;7.20;92.70
52787;DHT22;38661;53.152;5.846;2023-12-20T01:45:57;7.20;92.70
52787;DHT22;38661;53.152;5.846;2023-12-20T01:48:24;7.30;92.70
52787;DHT22;38661;53.152;5.846;2023-12-20T01:50:50;7.30;92.40
52787;DHT22;38661;53.152;5.846;2023-12-20T01:53:17;7.30;92.20
52787;DHT22;38661;53.152;5.846;2023-12-20T01:55:44;7.30;92.10
52787;DHT22;38661;53.152;5.846;2023-12-20T01:58:11;7.30;91.90
52787;DHT22;38661;53.152;5.846;2023-12-20T02:00:37;7.30;91.80
52787;DHT22;38661;53.152;5.846;2023-12-20T02:03:04;7.40;91.70
52787;DHT22;38661;53.152;5.846;2023-12-20T02:05:31;7.40;91.90
52787;DHT22;38661;53.152;5.846;2023-12-20T02:07:57;7.40;91.70
52787;DHT22;38661;53.152;5.846;2023-12-20T02:10:23;7.40;92.00
52787;DHT22;38661;53.152;5.846;2023-12-20T02:12:49;7.50;91.70
52787;DHT22;38661;53.152;5.846;2023-12-20T02:15:14;7.40;91.60
52787;DHT22;38661;53.152;5.846;2023-12-20T02:17:40;7.50;91.60
52787;DHT22;38661;53.152;5.846;2023-12-20T02:20:06;7.40;91.40
52787;DHT22;38661;53.152;5.846;2023-12-20T02:22:32;7.50;91.70
52787;DHT22;38661;53.152;5.846;2023-12-20T02:25:00;7.40;91.70
52787;DHT22;38661;53.152;5.846;2023-12-20T02:27:26;7.50;91.50
52787;DHT22;38661;53.152;5.846;2023-12-20T02:29:52;7.40;91.20
52787;DHT22;38661;53.152;5.846;2023-12-20T02:32:18;7.40;91.30
52787;DHT22;38661;53.152;5.846;2023-12-20T02:34:45;7.40;91.00
52787;DHT22;38661;53.152;5.846;2023-12-20T02:37:11;7.50;91.00
52787;DHT22;38661;53.152;5.846;2023-12-20T02:39:37;7.50;90.80
52787;DHT22;38661;53.152;5.846;2023-12-20T02:42:03;7.50;90.60
52787;DHT22;38661;53.152;5.846;2023-12-20T02:44:28;7.50;90.60
52787;DHT22;38661;53.152;5.846;2023-12-20T02:46:54;7.40;90.90
52787;DHT22;38661;53.152;5.846;2023-12-20T02:49:20;7.40;90.70
52787;DHT22;38661;53.152;5.846;2023-12-20T02:51:46;7.50;90.60
52787;DHT22;38661;53.152;5.846;2023-12-20T02:54:12;7.40;90.80
52787;DHT22;38661;53.152;5.846;2023-12-20T02:56:37;7.40;90.80
52787;DHT22;38661;53.152;5.846;2023-12-20T02:59:03;7.40;90.70
52787;DHT22;38661;53.152;5.846;2023-12-20T03:01:31;7.40;90.80
52787;DHT22;38661;53.152;5.846;2023-12-20T03:03:57;7.40;91.10
52787;DHT22;38661;53.152;5.846;2023-12-20T03:06:23;7.40;90.90
52787;DHT22;38661;53.152;5.846;2023-12-20T03:08:49;7.40;90.90
52787;DHT22;38661;53.152;5.846;2023-12-20T03:11:14;7.40;90.90
52787;DHT22;38661;53.152;5.846;2023-12-20T03:13:40;7.40;91.00
52787;DHT22;38661;53.152;5.846;2023-12-20T03:16:13;7.40;90.90
52787;DHT22;38661;53.152;5.846;2023-12-20T03:18:39;7.40;91.30
52787;DHT22;38661;53.152;5.846;2023-12-20T03:21:05;7.40;91.10
52787;DHT22;38661;53.152;5.846;2023-12-20T03:23:31;7.40;91.20
52787;DHT22;38661;53.152;5.846;2023-12-20T03:25:59;7.40;91.00
52787;DHT22;38661;53.152;5.846;2023-12-20T03:28:26;7.40;90.90
52787;DHT22;38661;53.152;5.846;2023-12-20T03:30:52;7.40;90.90
52787;DHT22;38661;53.152;5.846;2023-12-20T03:33:17;7.40;91.10
52787;DHT22;38661;53.152;5.846;2023-12-20T03:35:43;7.50;91.10
52787;DHT22;38661;53.152;5.846;2023-12-20T03:38:09;7.50;91.00
52787;DHT22;38661;53.152;5.846;2023-12-20T03:40:34;7.60;90.80
52787;DHT22;38661;53.152;5.846;2023-12-20T03:43:00;7.50;90.80
52787;DHT22;38661;53.152;5.846;2023-12-20T03:45:26;7.50;90.70
52787;DHT22;38661;53.152;5.846;2023-12-20T03:47:52;7.50;90.60
52787;DHT22;38661;53.152;5.846;2023-12-20T03:50:26;7.60;90.60
52787;DHT22;38661;53.152;5.846;2023-12-20T03:52:52;7.60;90.60
52787;DHT22;38661;53.152;5.846;2023-12-20T03:55:18;7.60;90.70
52787;DHT22;38661;53.152;5.846;2023-12-20T03:57:44;7.70;90.60
52787;DHT22;38661;53.152;5.846;2023-12-20T04:00:10;7.60;90.50
52787;DHT22;38661;53.152;5.846;2023-12-20T04:02:37;7.60;90.60
52787;DHT22;38661;53.152;5.846;2023-12-20T04:05:03;7.70;90.50
52787;DHT22;38661;53.152;5.846;2023-12-20T04:07:28;7.70;90.70
52787;DHT22;38661;53.152;5.846;2023-12-20T04:09:55;7.80;90.50
52787;DHT22;38661;53.152;5.846;2023-12-20T04:12:21;7.70;90.50
52787;DHT22;38661;53.152;5.846;2023-12-20T04:14:46;7.70;90.40
52787;DHT22;38661;53.152;5.846;2023-12-20T04:17:12;7.70;90.50
52787;DHT22;38661;53.152;5.846;2023-12-20T04:19:38;7.70;90.60
52787;DHT22;38661;53.152;5.846;2023-12-20T04:22:03;7.70;91.00
52787;DHT22;38661;53.152;5.846;2023-12-20T04:24:29;7.70;91.00
52787;DHT22;38661;53.152;5.846;2023-12-20T04:26:55;7.70;91.00
52787;DHT22;38661;53.152;5.846;2023-12-20T04:29:20;7.70;91.10
52787;DHT22;38661;53.152;5.846;2023-12-20T04:31:46;7.80;90.90
52787;DHT22;38661;53.152;5.846;2023-12-20T04:34:12;7.80;90.80
52787;DHT22;38661;53.152;5.846;2023-12-20T04:36:37;7.80;90.70
52787;DHT22;38661;53.152;5.846;2023-12-20T04:39:03;7.80;90.80
52787;DHT22;38661;53.152;5.846;2023-12-20T04:41:29;7.80;90.90
52787;DHT22;38661;53.152;5.846;2023-12-20T04:43:54;7.70;90.80
52787;DHT22;38661;53.152;5.846;2023-12-20T04:46:20;7.70;91.00
52787;DHT22;38661;53.152;5.846;2023-12-20T04:48:46;7.70;91.20
52787;DHT22;38661;53.152;5.846;2023-12-20T04:51:11;7.70;91.20
52787;DHT22;38661;53.152;5.846;2023-12-20T04:53:37;7.80;91.00
52787;DHT22;38661;53.152;5.846;2023-12-20T04:56:03;7.80;91.00
52787;DHT22;38661;53.152;5.846;2023-12-20T04:58:28;7.80;90.90
52787;DHT22;38661;53.152;5.846;2023-12-20T05:00:54;7.90;90.60
52787;DHT22;38661;53.152;5.846;2023-12-20T05:03:20;7.80;90.70
52787;DHT22;38661;53.152;5.846;2023-12-20T05:05:46;7.90;90.70
52787;DHT22;38661;53.152;5.846;2023-12-20T05:08:11;8.00;90.30
52787;DHT22;38661;53.152;5.846;2023-12-20T05:10:37;8.00;90.20
52787;DHT22;38661;53.152;5.846;2023-12-20T05:13:03;8.00;90.20
52787;DHT22;38661;53.152;5.846;2023-12-20T05:15:28;7.90;90.40
52787;DHT22;38661;53.152;5.846;2023-12-20T05:17:54;7.90;90.40
52787;DHT22;38661;53.152;5.846;2023-12-20T05:20:20;8.00;90.50
52787;DHT22;38661;53.152;5.846;2023-12-20T05:22:45;8.00;90.40
52787;DHT22;38661;53.152;5.846;2023-12-20T05:25:12;8.00;90.70
52787;DHT22;38661;53.152;5.846;2023-12-20T05:27:38;8.00;90.70
52787;DHT22;38661;53.152;5.846;2023-12-20T05:30:04;8.00;90.80
52787;DHT22;38661;53.152;5.846;2023-12-20T05:32:30;8.00;90.80
52787;DHT22;38661;53.152;5.846;2023-12-20T05:34:56;8.00;90.70
52787;DHT22;38661;53.152;5.846;2023-12-20T05:37:22;8.00;90.80
52787;DHT22;38661;53.152;5.846;2023-12-20T05:39:48;8.10;90.60
52787;DHT22;38661;53.152;5.846;2023-12-20T05:42:13;8.10;90.30
52787;DHT22;38661;53.152;5.846;2023-12-20T05:44:39;8.10;90.10
52787;DHT22;38661;53.152;5.846;2023-12-20T05:47:05;8.10;89.80
52787;DHT22;38661;53.152;5.846;2023-12-20T05:49:30;8.10;90.00
52787;DHT22;38661;53.152;5.846;2023-12-20T05:51:57;8.10;90.00
52787;DHT22;38661;53.152;5.846;2023-12-20T05:54:22;8.00;90.00
52787;DHT22;38661;53.152;5.846;2023-12-20T05:56:48;8.10;90.00
52787;DHT22;38661;53.152;5.846;2023-12-20T05:59:14;8.10;89.80
52787;DHT22;38661;53.152;5.846;2023-12-20T06:01:40;8.10;89.60
52787;DHT22;38661;53.152;5.846;2023-12-20T06:04:05;8.20;89.60
52787;DHT22;38661;53.152;5.846;2023-12-20T06:06:31;8.20;89.40
52787;DHT22;38661;53.152;5.846;2023-12-20T06:08:57;8.10;89.60
52787;DHT22;38661;53.152;5.846;2023-12-20T06:11:23;8.20;89.50
52787;DHT22;38661;53.152;5.846;2023-12-20T06:13:48;8.20;88.90
52787;DHT22;38661;53.152;5.846;2023-12-20T06:16:18;8.20;89.10
52787;DHT22;38661;53.152;5.846;2023-12-20T06:18:43;8.20;89.10
52787;DHT22;38661;53.152;5.846;2023-12-20T06:21:09;8.20;89.20
52787;DHT22;38661;53.152;5.846;2023-12-20T06:23:38;8.20;89.10
52787;DHT22;38661;53.152;5.846;2023-12-20T06:26:04;8.20;89.20
52787;DHT22;38661;53.152;5.846;2023-12-20T06:28:30;8.20;89.30
52787;DHT22;38661;53.152;5.846;2023-12-20T06:30:55;8.20;89.40
52787;DHT22;38661;53.152;5.846;2023-12-20T06:33:22;8.10;89.40
52787;DHT22;38661;53.152;5.846;2023-12-20T06:35:49;8.10;89.70
52787;DHT22;38661;53.152;5.846;2023-12-20T06:38:14;8.10;89.90
52787;DHT22;38661;53.152;5.846;2023-12-20T06:40:40;8.20;89.90
52787;DHT22;38661;53.152;5.846;2023-12-20T06:43:06;8.20;89.90
52787;DHT22;38661;53.152;5.846;2023-12-20T06:45:32;8.30;89.70
52787;DHT22;38661;53.152;5.846;2023-12-20T06:47:58;8.30;89.40
52787;DHT22;38661;53.152;5.846;2023-12-20T06:50:24;8.20;89.80
52787;DHT22;38661;53.152;5.846;2023-12-20T06:52:50;8.20;89.80
52787;DHT22;38661;53.152;5.846;2023-12-20T06:55:15;8.30;89.90
52787;DHT22;38661;53.152;5.846;2023-12-20T06:57:42;8.30;89.90
52787;DHT22;38661;53.152;5.846;2023-12-20T07:00:08;8.30;89.70
52787;DHT22;38661;53.152;5.846;2023-12-20T07:02:36;8.30;89.50
52787;DHT22;38661;53.152;5.846;2023-12-20T07:05:02;8.30;89.70
52787;DHT22;38661;53.152;5.846;2023-12-20T07:07:27;8.30;89.80
52787;DHT22;38661;53.152;5.846;2023-12-20T07:09:53;8.30;90.00
52787;DHT22;38661;53.152;5.846;2023-12-20T07:12:19;8.20;89.80
52787;DHT22;38661;53.152;5.846;2023-12-20T07:14:45;8.20;89.70
52787;DHT22;38661;53.152;5.846;2023-12-20T07:17:11;8.20;89.70
52787;DHT22;38661;53.152;5.846;2023-12-20T07:19:39;8.20;89.70
52787;DHT22;38661;53.152;5.846;2023-12-20T07:22:06;8.20;89.70
52787;DHT22;38661;53.152;5.846;2023-12-20T07:24:32;8.20;89.60
52787;DHT22;38661;53.152;5.846;2023-12-20T07:26:59;8.20;89.10
52787;DHT22;38661;53.152;5.846;2023-12-20T07:29:25;8.20;89.10
52787;DHT22;38661;53.152;5.846;2023-12-20T07:31:51;8.20;89.30
52787;DHT22;38661;53.152;5.846;2023-12-20T07:34:17;8.30;89.30
52787;DHT22;38661;53.152;5.846;2023-12-20T07:36:43;8.30;89.30
52787;DHT22;38661;53.152;5.846;2023-12-20T07:39:09;8.30;89.20
52787;DHT22;38661;53.152;5.846;2023-12-20T07:41:35;8.30;89.50
52787;DHT22;38661;53.152;5.846;2023-12-20T07:44:01;8.30;89.50
52787;DHT22;38661;53.152;5.846;2023-12-20T07:46:27;8.30;89.50
52787;DHT22;38661;53.152;5.846;2023-12-20T07:48:52;8.30;89.70
52787;DHT22;38661;53.152;5.846;2023-12-20T07:51:18;8.30;89.80
52787;DHT22;38661;53.152;5.846;2023-12-20T07:53:44;8.30;89.70
52787;DHT22;38661;53.152;5.846;2023-12-20T07:56:17;8.30;89.90
52787;DHT22;38661;53.152;5.846;2023-12-20T07:58:43;8.30;89.90
52787;DHT22;38661;53.152;5.846;2023-12-20T08:01:11;8.30;89.30
52787;DHT22;38661;53.152;5.846;2023-12-20T08:03:37;8.20;89.60
52787;DHT22;38661;53.152;5.846;2023-12-20T08:06:04;8.10;89.80
52787;DHT22;38661;53.152;5.846;2023-12-20T08:08:30;8.00;90.30
52787;DHT22;38661;53.152;5.846;2023-12-20T08:10:56;7.90;90.30
52787;DHT22;38661;53.152;5.846;2023-12-20T08:13:24;7.90;90.70
52787;DHT22;38661;53.152;5.846;2023-12-20T08:15:52;7.80;91.10
52787;DHT22;38661;53.152;5.846;2023-12-20T08:18:17;7.80;91.50
52787;DHT22;38661;53.152;5.846;2023-12-20T08:20:43;7.80;92.00
52787;DHT22;38661;53.152;5.846;2023-12-20T08:23:09;7.90;92.00
52787;DHT22;38661;53.152;5.846;2023-12-20T08:25:34;7.90;91.90
52787;DHT22;38661;53.152;5.846;2023-12-20T08:28:02;8.00;91.90
52787;DHT22;38661;53.152;5.846;2023-12-20T08:30:28;8.00;91.60
52787;DHT22;38661;53.152;5.846;2023-12-20T08:32:55;8.10;91.60
52787;DHT22;38661;53.152;5.846;2023-12-20T08:35:21;8.10;91.70
52787;DHT22;38661;53.152;5.846;2023-12-20T08:37:46;8.10;91.40
52787;DHT22;38661;53.152;5.846;2023-12-20T08:40:12;8.20;91.40
52787;DHT22;38661;53.152;5.846;2023-12-20T08:42:38;8.20;91.20
52787;DHT22;38661;53.152;5.846;2023-12-20T08:45:04;8.20;91.20
52787;DHT22;38661;53.152;5.846;2023-12-20T08:47:30;8.30;90.80
52787;DHT22;38661;53.152;5.846;2023-12-20T08:49:55;8.30;90.20
52787;DHT22;38661;53.152;5.846;2023-12-20T08:52:25;8.30;90.20
52787;DHT22;38661;53.152;5.846;2023-12-20T08:54:53;8.40;90.00
52787;DHT22;38661;53.152;5.846;2023-12-20T08:57:22;8.40;89.90
52787;DHT22;38661;53.152;5.846;2023-12-20T08:59:51;8.40;90.00
52787;DHT22;38661;53.152;5.846;2023-12-20T09:02:17;8.40;89.80
52787;DHT22;38661;53.152;5.846;2023-12-20T09:04:43;8.30;89.60
52787;DHT22;38661;53.152;5.846;2023-12-20T09:07:25;8.00;89.00
52787;DHT22;38661;53.152;5.846;2023-12-20T09:09:52;7.60;88.80
52787;DHT22;38661;53.152;5.846;2023-12-20T09:12:19;7.40;89.00
52787;DHT22;38661;53.152;5.846;2023-12-20T09:14:48;7.30;89.20
52787;DHT22;38661;53.152;5.846;2023-12-20T09:17:15;7.10;89.60
52787;DHT22;38661;53.152;5.846;2023-12-20T09:19:42;7.10;90.00
52787;DHT22;38661;53.152;5.846;2023-12-20T09:22:09;7.10;90.50
52787;DHT22;38661;53.152;5.846;2023-12-20T09:24:35;7.00;90.60
52787;DHT22;38661;53.152;5.846;2023-12-20T09:27:01;6.90;91.00
52787;DHT22;38661;53.152;5.846;2023-12-20T09:29:26;7.00;91.30
52787;DHT22;38661;53.152;5.846;2023-12-20T09:31:52;6.90;91.50
52787;DHT22;38661;53.152;5.846;2023-12-20T09:34:18;6.90;91.70
52787;DHT22;38661;53.152;5.846;2023-12-20T09:36:43;6.80;91.80
52787;DHT22;38661;53.152;5.846;2023-12-20T09:39:13;6.80;92.10
52787;DHT22;38661;53.152;5.846;2023-12-20T09:41:43;6.80;92.30
52787;DHT22;38661;53.152;5.846;2023-12-20T09:44:15;6.80;92.40
52787;DHT22;38661;53.152;5.846;2023-12-20T09:46:44;6.90;92.50
52787;DHT22;38661;53.152;5.846;2023-12-20T09:49:11;6.90;92.40
52787;DHT22;38661;53.152;5.846;2023-12-20T09:51:38;6.80;92.60
52787;DHT22;38661;53.152;5.846;2023-12-20T09:54:05;6.90;92.40
52787;DHT22;38661;53.152;5.846;2023-12-20T09:56:30;6.90;92.10
52787;DHT22;38661;53.152;5.846;2023-12-20T09:58:56;7.00;91.50
52787;DHT22;38661;53.152;5.846;2023-12-20T10:01:23;6.90;90.90
52787;DHT22;38661;53.152;5.846;2023-12-20T10:03:51;6.90;90.20
52787;DHT22;38661;53.152;5.846;2023-12-20T10:06:19;7.00;89.80
52787;DHT22;38661;53.152;5.846;2023-12-20T10:08:45;7.00;89.70
52787;DHT22;38661;53.152;5.846;2023-12-20T10:11:10;7.00;89.40
52787;DHT22;38661;53.152;5.846;2023-12-20T10:13:40;7.00;89.20
52787;DHT22;38661;53.152;5.846;2023-12-20T10:16:07;7.10;89.20
52787;DHT22;38661;53.152;5.846;2023-12-20T10:18:33;7.10;89.20
52787;DHT22;38661;53.152;5.846;2023-12-20T10:21:00;7.20;89.10
52787;DHT22;38661;53.152;5.846;2023-12-20T10:23:25;7.30;88.80
52787;DHT22;38661;53.152;5.846;2023-12-20T10:26:00;7.30;88.80
52787;DHT22;38661;53.152;5.846;2023-12-20T10:28:28;7.40;88.60
52787;DHT22;38661;53.152;5.846;2023-12-20T10:30:58;7.40;88.60
52787;DHT22;38661;53.152;5.846;2023-12-20T10:33:27;7.40;88.70
52787;DHT22;38661;53.152;5.846;2023-12-20T10:35:57;7.50;88.60
52787;DHT22;38661;53.152;5.846;2023-12-20T10:38:23;7.50;88.40
52787;DHT22;38661;53.152;5.846;2023-12-20T10:40:54;7.50;88.50
52787;DHT22;38661;53.152;5.846;2023-12-20T10:43:20;7.50;88.30
52787;DHT22;38661;53.152;5.846;2023-12-20T10:45:46;7.60;88.50
52787;DHT22;38661;53.152;5.846;2023-12-20T10:48:11;7.60;88.50
52787;DHT22;38661;53.152;5.846;2023-12-20T10:50:38;7.60;88.50
52787;DHT22;38661;53.152;5.846;2023-12-20T10:53:04;7.60;88.40
52787;DHT22;38661;53.152;5.846;2023-12-20T10:55:30;7.70;88.40
52787;DHT22;38661;53.152;5.846;2023-12-20T10:58:01;7.60;88.40
52787;DHT22;38661;53.152;5.846;2023-12-20T11:00:29;7.70;88.30
52787;DHT22;38661;53.152;5.846;2023-12-20T11:03:00;7.70;87.90
52787;DHT22;38661;53.152;5.846;2023-12-20T11:05:53;7.70;87.80
52787;DHT22;38661;53.152;5.846;2023-12-20T11:08:33;7.70;87.80
52787;DHT22;38661;53.152;5.846;2023-12-20T11:11:10;7.80;87.80
52787;DHT22;38661;53.152;5.846;2023-12-20T11:13:53;7.80;87.50
52787;DHT22;38661;53.152;5.846;2023-12-20T11:16:20;7.80;87.60
52787;DHT22;38661;53.152;5.846;2023-12-20T11:18:46;7.80;87.60
52787;DHT22;38661;53.152;5.846;2023-12-20T11:21:11;7.90;87.70
52787;DHT22;38661;53.152;5.846;2023-12-20T11:23:42;8.00;87.90
52787;DHT22;38661;53.152;5.846;2023-12-20T11:26:08;8.00;87.40
52787;DHT22;38661;53.152;5.846;2023-12-20T11:28:34;8.00;87.50
52787;DHT22;38661;53.152;5.846;2023-12-20T11:31:01;8.10;87.40
52787;DHT22;38661;53.152;5.846;2023-12-20T11:33:36;8.10;86.90
52787;DHT22;38661;53.152;5.846;2023-12-20T11:36:02;8.10;87.00
52787;DHT22;38661;53.152;5.846;2023-12-20T11:38:36;8.10;87.00
52787;DHT22;38661;53.152;5.846;2023-12-20T11:41:05;8.10;86.60
52787;DHT22;38661;53.152;5.846;2023-12-20T11:43:37;8.10;86.70
52787;DHT22;38661;53.152;5.846;2023-12-20T11:46:07;8.10;87.00
52787;DHT22;38661;53.152;5.846;2023-12-20T11:48:39;8.10;87.20
52787;DHT22;38661;53.152;5.846;2023-12-20T11:51:14;8.10;87.20
52787;DHT22;38661;53.152;5.846;2023-12-20T11:53:41;8.10;87.30
52787;DHT22;38661;53.152;5.846;2023-12-20T11:56:08;8.10;86.90
52787;DHT22;38661;53.152;5.846;2023-12-20T11:58:34;8.10;86.90
52787;DHT22;38661;53.152;5.846;2023-12-20T12:01:01;8.10;86.90
52787;DHT22;38661;53.152;5.846;2023-12-20T12:03:30;8.10;87.20
52787;DHT22;38661;53.152;5.846;2023-12-20T12:05:55;8.10;87.70
52787;DHT22;38661;53.152;5.846;2023-12-20T12:08:21;8.10;88.40
52787;DHT22;38661;53.152;5.846;2023-12-20T12:10:47;8.10;89.10
52787;DHT22;38661;53.152;5.846;2023-12-20T12:13:13;8.10;89.80
52787;DHT22;38661;53.152;5.846;2023-12-20T12:15:40;8.00;90.10
52787;DHT22;38661;53.152;5.846;2023-12-20T12:18:07;8.00;90.60
52787;DHT22;38661;53.152;5.846;2023-12-20T12:20:33;7.90;90.90
52787;DHT22;38661;53.152;5.846;2023-12-20T12:23:00;7.90;90.90
52787;DHT22;38661;53.152;5.846;2023-12-20T12:25:26;7.90;91.00
52787;DHT22;38661;53.152;5.846;2023-12-20T12:27:52;7.80;90.80
52787;DHT22;38661;53.152;5.846;2023-12-20T12:30:18;7.80;90.80
52787;DHT22;38661;53.152;5.846;2023-12-20T12:32:44;7.70;90.30
52787;DHT22;38661;53.152;5.846;2023-12-20T12:35:10;7.60;89.50
52787;DHT22;38661;53.152;5.846;2023-12-20T12:37:40;7.60;89.10
52787;DHT22;38661;53.152;5.846;2023-12-20T12:40:10;7.50;89.60
52787;DHT22;38661;53.152;5.846;2023-12-20T12:42:40;7.50;89.70
52787;DHT22;38661;53.152;5.846;2023-12-20T12:45:06;7.40;89.80
52787;DHT22;38661;53.152;5.846;2023-12-20T12:47:32;7.40;90.00
52787;DHT22;38661;53.152;5.846;2023-12-20T12:49:58;7.30;90.20
52787;DHT22;38661;53.152;5.846;2023-12-20T12:52:24;7.30;90.60
52787;DHT22;38661;53.152;5.846;2023-12-20T12:54:49;7.20;90.70
52787;DHT22;38661;53.152;5.846;2023-12-20T12:57:15;7.30;91.00
52787;DHT22;38661;53.152;5.846;2023-12-20T12:59:43;7.20;91.30
52787;DHT22;38661;53.152;5.846;2023-12-20T13:02:11;7.20;91.40
52787;DHT22;38661;53.152;5.846;2023-12-20T13:04:37;7.20;91.90
52787;DHT22;38661;53.152;5.846;2023-12-20T13:07:02;7.20;91.70
52787;DHT22;38661;53.152;5.846;2023-12-20T13:09:28;7.10;91.90
52787;DHT22;38661;53.152;5.846;2023-12-20T13:11:54;7.10;92.20
52787;DHT22;38661;53.152;5.846;2023-12-20T13:14:20;7.10;92.40
52787;DHT22;38661;53.152;5.846;2023-12-20T13:16:45;7.10;92.60
52787;DHT22;38661;53.152;5.846;2023-12-20T13:19:14;7.10;92.50
52787;DHT22;38661;53.152;5.846;2023-12-20T13:21:40;7.00;92.70
52787;DHT22;38661;53.152;5.846;2023-12-20T13:24:06;7.00;92.90
52787;DHT22;38661;53.152;5.846;2023-12-20T13:26:32;7.00;93.00
52787;DHT22;38661;53.152;5.846;2023-12-20T13:28:58;7.00;93.10
52787;DHT22;38661;53.152;5.846;2023-12-20T13:31:24;7.00;93.10
52787;DHT22;38661;53.152;5.846;2023-12-20T13:33:50;7.00;93.20
52787;DHT22;38661;53.152;5.846;2023-12-20T13:36:18;7.00;93.10
52787;DHT22;38661;53.152;5.846;2023-12-20T13:38:44;6.90;93.30
52787;DHT22;38661;53.152;5.846;2023-12-20T13:41:09;7.00;93.30
52787;DHT22;38661;53.152;5.846;2023-12-20T13:43:35;6.90;93.40
52787;DHT22;38661;53.152;5.846;2023-12-20T13:46:01;6.90;93.50
52787;DHT22;38661;53.152;5.846;2023-12-20T13:48:27;6.90;93.70
52787;DHT22;38661;53.152;5.846;2023-12-20T13:50:53;7.00;93.90
52787;DHT22;38661;53.152;5.846;2023-12-20T13:53:20;7.00;93.80
52787;DHT22;38661;53.152;5.846;2023-12-20T13:55:45;7.00;93.70
52787;DHT22;38661;53.152;5.846;2023-12-20T13:58:12;7.00;93.70
52787;DHT22;38661;53.152;5.846;2023-12-20T14:00:38;7.00;93.80
52787;DHT22;38661;53.152;5.846;2023-12-20T14:03:04;7.00;94.00
52787;DHT22;38661;53.152;5.846;2023-12-20T14:05:30;7.00;94.10
52787;DHT22;38661;53.152;5.846;2023-12-20T14:07:57;7.10;94.30
52787;DHT22;38661;53.152;5.846;2023-12-20T14:10:23;7.00;94.20
52787;DHT22;38661;53.152;5.846;2023-12-20T14:12:52;7.00;94.40
52787;DHT22;38661;53.152;5.846;2023-12-20T14:15:18;7.00;94.30
52787;DHT22;38661;53.152;5.846;2023-12-20T14:17:43;7.00;94.60
52787;DHT22;38661;53.152;5.846;2023-12-20T14:20:09;6.90;94.60
52787;DHT22;38661;53.152;5.846;2023-12-20T14:22:38;6.90;94.80
52787;DHT22;38661;53.152;5.846;2023-12-20T14:25:04;6.90;94.70
52787;DHT22;38661;53.152;5.846;2023-12-20T14:27:31;6.90;94.90
52787;DHT22;38661;53.152;5.846;2023-12-20T14:29:57;6.90;94.90
52787;DHT22;38661;53.152;5.846;2023-12-20T14:32:24;7.00;95.10
52787;DHT22;38661;53.152;5.846;2023-12-20T14:34:52;6.90;95.20
52787;DHT22;38661;53.152;5.846;2023-12-20T14:37:17;7.00;95.10
52787;DHT22;38661;53.152;5.846;2023-12-20T14:39:43;7.00;95.20
52787;DHT22;38661;53.152;5.846;2023-12-20T14:42:09;7.10;95.20
52787;DHT22;38661;53.152;5.846;2023-12-20T14:44:43;7.10;95.20
52787;DHT22;38661;53.152;5.846;2023-12-20T14:47:08;7.10;95.30
52787;DHT22;38661;53.152;5.846;2023-12-20T14:49:34;7.30;95.20
52787;DHT22;38661;53.152;5.846;2023-12-20T14:52:01;7.30;95.00
52787;DHT22;38661;53.152;5.846;2023-12-20T14:54:27;7.40;95.00
52787;DHT22;38661;53.152;5.846;2023-12-20T14:56:52;7.50;94.90
52787;DHT22;38661;53.152;5.846;2023-12-20T14:59:18;7.50;94.70
52787;DHT22;38661;53.152;5.846;2023-12-20T15:01:44;7.60;94.40
52787;DHT22;38661;53.152;5.846;2023-12-20T15:04:10;7.60;94.20
52787;DHT22;38661;53.152;5.846;2023-12-20T15:06:36;7.70;94.10
52787;DHT22;38661;53.152;5.846;2023-12-20T15:09:02;7.80;93.90
52787;DHT22;38661;53.152;5.846;2023-12-20T15:11:30;7.80;93.70
52787;DHT22;38661;53.152;5.846;2023-12-20T15:13:57;7.80;93.70
52787;DHT22;38661;53.152;5.846;2023-12-20T15:16:24;7.90;93.70
52787;DHT22;38661;53.152;5.846;2023-12-20T15:18:51;7.90;93.60
52787;DHT22;38661;53.152;5.846;2023-12-20T15:21:17;8.00;93.50
52787;DHT22;38661;53.152;5.846;2023-12-20T15:23:43;8.00;93.50
52787;DHT22;38661;53.152;5.846;2023-12-20T15:26:19;8.00;93.30
52787;DHT22;38661;53.152;5.846;2023-12-20T15:28:45;8.00;93.30
52787;DHT22;38661;53.152;5.846;2023-12-20T15:31:10;8.00;92.70
52787;DHT22;38661;53.152;5.846;2023-12-20T15:33:37;7.90;92.30
52787;DHT22;38661;53.152;5.846;2023-12-20T15:36:03;7.90;91.70
52787;DHT22;38661;53.152;5.846;2023-12-20T15:38:29;7.90;91.70
52787;DHT22;38661;53.152;5.846;2023-12-20T15:40:55;7.90;91.40